createdAt,value
2023-04-15T00:00:57.399Z,61.30
2023-04-15T00:03:24.451Z,61.30
2023-04-15T00:05:52.805Z,61.40
2023-04-15T00:08:19.681Z,61.30
2023-04-15T00:10:46.740Z,61.30
2023-04-15T00:13:13.729Z,61.30
2023-04-15T00:15:40.689Z,61.40
2023-04-15T00:18:07.543Z,61.30
2023-04-15T00:20:34.449Z,61.30
2023-04-15T00:23:02.722Z,61.30
2023-04-15T00:25:29.600Z,61.20
2023-04-15T00:27:56.596Z,61.20
2023-04-15T00:30:23.453Z,61.30
2023-04-15T00:32:50.304Z,61.30
2023-04-15T00:35:17.304Z,61.30
2023-04-15T00:37:46.047Z,61.30
2023-04-15T00:40:14.755Z,61.40
2023-04-15T00:42:41.623Z,61.40
2023-04-15T00:45:09.334Z,61.50
2023-04-15T00:47:36.561Z,61.50
2023-04-15T00:50:03.495Z,61.60
2023-04-15T00:52:30.352Z,61.60
2023-04-15T00:54:57.207Z,61.70
2023-04-15T00:57:25.439Z,61.70
2023-04-15T00:59:52.631Z,61.70
2023-04-15T01:02:19.830Z,61.60
2023-04-15T01:04:46.799Z,61.60
2023-04-15T01:07:13.646Z,61.70
2023-04-15T01:09:40.510Z,61.70
2023-04-15T01:12:07.549Z,61.80
2023-04-15T01:14:35.794Z,61.80
2023-04-15T01:17:02.679Z,61.80
2023-04-15T01:19:29.547Z,61.90
2023-04-15T01:21:56.418Z,61.90
2023-04-15T01:24:23.290Z,61.90
2023-04-15T01:26:51.529Z,62.00
2023-04-15T01:29:18.369Z,62.00
2023-04-15T01:31:50.569Z,61.90
2023-04-15T01:34:17.479Z,61.90
2023-04-15T01:36:44.364Z,61.90
2023-04-15T01:39:11.209Z,61.90
2023-04-15T01:41:38.135Z,62.00
2023-04-15T01:44:06.399Z,62.10
2023-04-15T01:46:33.339Z,62.10
2023-04-15T01:49:00.306Z,62.20
2023-04-15T01:51:27.234Z,62.10
2023-04-15T01:53:54.111Z,62.10
2023-04-15T01:56:20.979Z,62.10
2023-04-15T01:58:48.103Z,62.10
2023-04-15T02:01:16.365Z,62.10
2023-04-15T02:03:43.371Z,62.10
2023-04-15T02:06:10.295Z,62.20
2023-04-15T02:08:37.161Z,62.20
2023-04-15T02:11:04.039Z,62.20
2023-04-15T02:13:30.892Z,62.20
2023-04-15T02:15:57.745Z,62.20
2023-04-15T02:18:26.041Z,62.20
2023-04-15T02:20:52.911Z,62.20
2023-04-15T02:23:19.774Z,62.20
2023-04-15T02:25:53.407Z,62.20
2023-04-15T02:28:21.298Z,62.20
2023-04-15T02:30:48.595Z,62.20
2023-04-15T02:33:15.474Z,62.20
2023-04-15T02:35:43.688Z,62.30
2023-04-15T02:38:10.549Z,62.30
2023-04-15T02:40:37.443Z,62.30
2023-04-15T02:43:04.325Z,62.40
2023-04-15T02:45:31.165Z,62.40
2023-04-15T02:47:58.069Z,62.40
2023-04-15T02:50:24.951Z,62.40
2023-04-15T02:52:53.216Z,62.40
2023-04-15T02:55:20.108Z,62.40
2023-04-15T02:57:46.982Z,62.40
2023-04-15T03:00:14.590Z,62.40
2023-04-15T03:02:41.524Z,62.40
2023-04-15T03:05:11.675Z,63.30
2023-04-15T03:07:38.568Z,62.50
2023-04-15T03:10:07.958Z,62.50
2023-04-15T03:12:34.808Z,62.50
2023-04-15T03:15:01.773Z,62.50
2023-04-15T03:17:28.698Z,62.50
2023-04-15T03:19:55.697Z,62.50
2023-04-15T03:22:22.660Z,62.60
2023-04-15T03:24:49.511Z,62.60
2023-04-15T03:27:17.748Z,62.60
2023-04-15T03:29:44.629Z,62.60
2023-04-15T03:32:11.483Z,62.70
2023-04-15T03:34:38.353Z,62.70
2023-04-15T03:37:05.703Z,62.70
2023-04-15T03:39:32.598Z,62.60
2023-04-15T03:41:59.448Z,62.70
2023-04-15T03:44:28.047Z,62.70
2023-04-15T03:46:54.941Z,62.60
2023-04-15T03:49:21.846Z,62.70
2023-04-15T03:51:48.696Z,62.70
2023-04-15T03:54:15.528Z,62.60
2023-04-15T03:56:42.403Z,62.60
2023-04-15T03:59:09.257Z,62.70
2023-04-15T04:01:37.503Z,62.70
2023-04-15T04:04:04.485Z,62.80
2023-04-15T04:06:31.514Z,62.80
2023-04-15T04:08:58.400Z,62.80
2023-04-15T04:11:25.280Z,62.90
2023-04-15T04:13:52.287Z,62.80
2023-04-15T04:16:19.223Z,62.90
2023-04-15T04:18:47.512Z,62.90
2023-04-15T04:21:14.410Z,62.90
2023-04-15T04:23:41.249Z,62.90
2023-04-15T04:26:08.114Z,62.90
2023-04-15T04:28:34.969Z,62.90
2023-04-15T04:31:01.817Z,62.90
2023-04-15T04:33:28.669Z,62.90
2023-04-15T04:35:56.890Z,62.90
2023-04-15T04:38:23.807Z,62.80
2023-04-15T04:40:50.646Z,62.80
2023-04-15T04:43:17.507Z,62.90
2023-04-15T04:45:44.389Z,62.90
2023-04-15T04:48:11.278Z,63.00
2023-04-15T04:50:38.167Z,63.00
2023-04-15T04:53:06.391Z,63.00
2023-04-15T04:55:33.267Z,63.00
2023-04-15T04:58:00.177Z,63.00
2023-04-15T05:00:27.042Z,63.00
2023-04-15T05:02:54.131Z,63.00
2023-04-15T05:05:21.338Z,63.00
2023-04-15T05:07:48.178Z,63.00
2023-04-15T05:10:16.613Z,63.00
2023-04-15T05:12:43.498Z,63.10
2023-04-15T05:15:10.977Z,63.00
2023-04-15T05:17:37.861Z,63.00
2023-04-15T05:20:05.426Z,63.00
2023-04-15T05:22:32.342Z,62.90
2023-04-15T05:24:59.210Z,63.00
2023-04-15T05:27:27.461Z,63.20
2023-04-15T05:29:54.328Z,63.00
2023-04-15T05:32:21.217Z,63.00
2023-04-15T05:34:48.101Z,63.10
2023-04-15T05:37:14.958Z,63.10
2023-04-15T05:39:41.794Z,63.10
2023-04-15T05:42:08.640Z,63.10
2023-04-15T05:44:36.873Z,63.20
2023-04-15T05:47:03.724Z,63.10
2023-04-15T05:49:30.579Z,63.10
2023-04-15T05:51:57.432Z,63.10
2023-04-15T05:54:24.318Z,63.20
2023-04-15T05:56:51.173Z,63.20
2023-04-15T05:59:18.026Z,63.20
2023-04-15T06:01:46.342Z,63.20
2023-04-15T06:04:13.365Z,63.20
2023-04-15T06:06:40.309Z,63.30
2023-04-15T06:09:07.167Z,64.00
2023-04-15T06:11:34.039Z,63.30
2023-04-15T06:14:00.898Z,63.20
2023-04-15T06:16:27.804Z,63.30
2023-04-15T06:18:56.081Z,63.20
2023-04-15T06:21:22.945Z,63.30
2023-04-15T06:23:49.833Z,63.30
2023-04-15T06:26:16.684Z,63.30
2023-04-15T06:28:43.535Z,63.20
2023-04-15T06:31:10.388Z,63.20
2023-04-15T06:33:37.254Z,63.20
2023-04-15T06:36:05.774Z,63.30
2023-04-15T06:38:32.630Z,63.20
2023-04-15T06:40:59.508Z,63.30
2023-04-15T06:43:26.382Z,63.30
2023-04-15T06:45:53.335Z,63.30
2023-04-15T06:48:20.185Z,63.40
2023-04-15T06:50:47.041Z,63.40
2023-04-15T06:53:15.292Z,63.40
2023-04-15T06:55:42.145Z,63.40
2023-04-15T06:58:08.971Z,63.40
2023-04-15T07:00:35.843Z,63.30
2023-04-15T07:03:02.731Z,63.20
2023-04-15T07:05:29.670Z,63.20
2023-04-15T07:07:56.802Z,63.20
2023-04-15T07:10:25.702Z,63.10
2023-04-15T07:12:52.672Z,63.10
2023-04-15T07:15:19.721Z,63.10
2023-04-15T07:17:46.662Z,63.10
2023-04-15T07:20:13.747Z,63.20
2023-04-15T07:22:40.646Z,63.30
2023-04-15T07:25:08.654Z,63.40
2023-04-15T07:27:36.912Z,63.50
2023-04-15T07:30:04.253Z,63.50
2023-04-15T07:32:31.164Z,63.70
2023-04-15T07:34:58.058Z,63.70
2023-04-15T07:37:24.978Z,63.80
2023-04-15T07:39:51.846Z,63.90
2023-04-15T07:42:18.743Z,63.90
2023-04-15T07:44:46.992Z,63.90
2023-04-15T07:47:13.856Z,63.90
2023-04-15T07:49:41.820Z,64.00
2023-04-15T07:52:08.711Z,63.90
2023-04-15T07:54:35.563Z,63.80
2023-04-15T07:57:02.440Z,63.70
2023-04-15T07:59:29.858Z,63.60
2023-04-15T08:01:58.142Z,63.60
2023-04-15T08:04:25.220Z,63.40
2023-04-15T08:06:52.246Z,63.40
2023-04-15T08:09:19.115Z,64.10
2023-04-15T08:11:46.700Z,63.30
2023-04-15T08:14:13.589Z,63.20
2023-04-15T08:16:40.480Z,63.30
2023-04-15T08:19:08.733Z,63.20
2023-04-15T08:21:35.582Z,63.10
2023-04-15T08:24:02.445Z,63.20
2023-04-15T08:26:29.335Z,63.10
2023-04-15T08:28:56.420Z,63.10
2023-04-15T08:31:23.351Z,63.10
2023-04-15T08:33:50.477Z,63.10
2023-04-15T08:36:19.393Z,63.10
2023-04-15T08:38:46.238Z,63.00
2023-04-15T08:41:18.714Z,63.10
2023-04-15T08:43:47.945Z,63.00
2023-04-15T08:46:15.021Z,63.10
2023-04-15T08:48:41.919Z,63.00
2023-04-15T08:51:08.789Z,63.00
2023-04-15T08:53:37.149Z,63.10
2023-04-15T08:56:05.427Z,63.00
2023-04-15T08:58:32.302Z,63.00
2023-04-15T09:00:59.173Z,63.00
2023-04-15T09:03:26.148Z,63.00
2023-04-15T09:05:53.387Z,63.00
2023-04-15T09:08:20.331Z,63.00
2023-04-15T09:10:48.614Z,63.10
2023-04-15T09:13:15.478Z,63.00
2023-04-15T09:15:42.341Z,63.10
2023-04-15T09:18:11.552Z,63.10
2023-04-15T09:20:39.465Z,63.10
2023-04-15T09:23:12.162Z,63.10
2023-04-15T09:25:38.997Z,63.00
2023-04-15T09:28:07.278Z,63.10
2023-04-15T09:30:34.230Z,63.10
2023-04-15T09:33:01.696Z,63.10
2023-04-15T09:35:28.658Z,63.10
2023-04-15T09:38:02.553Z,63.00
2023-04-15T09:40:32.387Z,63.00
2023-04-15T09:42:59.374Z,63.20
2023-04-15T09:45:29.655Z,63.40
2023-04-15T09:47:58.994Z,63.30
2023-04-15T09:50:27.887Z,63.20
2023-04-15T09:52:54.756Z,63.30
2023-04-15T09:55:21.631Z,63.30
2023-04-15T09:57:48.546Z,63.20
2023-04-15T10:00:15.859Z,63.20
2023-04-15T10:02:45.355Z,63.10
2023-04-15T10:05:13.944Z,63.10
2023-04-15T10:07:40.796Z,63.20
2023-04-15T10:10:08.356Z,63.20
2023-04-15T10:12:35.697Z,63.10
2023-04-15T10:15:04.686Z,63.10
2023-04-15T10:17:32.510Z,63.10
2023-04-15T10:20:00.907Z,63.20
2023-04-15T10:22:27.819Z,63.20
2023-04-15T10:24:54.714Z,63.20
2023-04-15T10:27:21.600Z,63.30
2023-04-15T10:29:48.520Z,63.20
2023-04-15T10:32:15.431Z,63.20
2023-04-15T10:34:42.282Z,63.20
2023-04-15T10:37:11.271Z,63.20
2023-04-15T10:39:42.392Z,63.20
2023-04-15T10:42:10.193Z,63.20
2023-04-15T10:44:37.222Z,63.20
2023-04-15T10:47:07.134Z,63.30
2023-04-15T10:49:34.010Z,63.20
2023-04-15T10:52:02.434Z,63.20
2023-04-15T10:54:33.458Z,63.30
2023-04-15T10:57:08.024Z,63.30
2023-04-15T10:59:37.078Z,63.30
2023-04-15T11:02:04.594Z,63.40
2023-04-15T11:04:58.712Z,63.40
2023-04-15T11:07:36.212Z,63.20
2023-04-15T11:10:04.857Z,63.30
2023-04-15T11:12:34.940Z,63.40
2023-04-15T11:15:16.878Z,63.40
2023-04-15T11:17:45.310Z,63.40
2023-04-15T11:20:15.526Z,63.50
2023-04-15T11:22:47.853Z,63.40
2023-04-15T11:25:23.834Z,63.40
2023-04-15T11:27:50.880Z,63.40
2023-04-15T11:30:21.493Z,63.40
2023-04-15T11:32:48.456Z,63.50
2023-04-15T11:35:16.207Z,63.50
2023-04-15T11:37:43.118Z,63.50
2023-04-15T11:40:10.579Z,63.50
2023-04-15T11:42:49.032Z,63.50
2023-04-15T11:45:16.649Z,63.50
2023-04-15T11:47:43.544Z,63.50
2023-04-15T11:50:17.254Z,63.50
2023-04-15T11:52:53.249Z,63.60
2023-04-15T11:55:20.130Z,63.60
2023-04-15T11:57:48.386Z,63.60
2023-04-15T12:00:15.546Z,63.60
2023-04-15T12:02:42.593Z,63.60
2023-04-15T12:05:09.668Z,63.60
2023-04-15T12:08:00.167Z,63.60
2023-04-15T12:10:27.058Z,63.60
2023-04-15T12:12:55.546Z,63.70
2023-04-15T12:15:22.696Z,63.70
2023-04-15T12:17:51.513Z,63.70
2023-04-15T12:20:22.419Z,63.70
2023-04-15T12:22:49.270Z,63.70
2023-04-15T12:25:16.211Z,63.70
2023-04-15T12:27:46.156Z,63.70
2023-04-15T12:30:14.580Z,63.70
2023-04-15T12:32:43.450Z,63.80
2023-04-15T12:35:10.474Z,63.80
2023-04-15T12:37:37.345Z,63.80
2023-04-15T12:40:04.718Z,63.80
2023-04-15T12:42:31.596Z,63.80
2023-04-15T12:44:58.445Z,63.80
2023-04-15T12:47:26.715Z,63.80
2023-04-15T12:49:53.610Z,63.80
2023-04-15T12:52:20.457Z,63.90
2023-04-15T12:54:47.322Z,63.90
2023-04-15T12:57:14.197Z,63.80
2023-04-15T12:59:41.038Z,63.80
2023-04-15T13:02:08.057Z,63.90
2023-04-15T13:04:36.470Z,63.90
2023-04-15T13:07:04.682Z,63.90
2023-04-15T13:09:31.555Z,63.90
2023-04-15T13:11:58.436Z,64.00
2023-04-15T13:14:25.407Z,64.00
2023-04-15T13:16:52.302Z,64.00
2023-04-15T13:19:19.211Z,64.00
2023-04-15T13:21:47.463Z,64.00
2023-04-15T13:24:14.330Z,64.00
2023-04-15T13:26:41.201Z,64.00
2023-04-15T13:29:08.181Z,64.00
2023-04-15T13:31:35.101Z,64.00
2023-04-15T13:34:02.006Z,64.10
2023-04-15T13:36:28.892Z,64.10
2023-04-15T13:38:57.135Z,64.00
2023-04-15T13:41:24.013Z,64.10
2023-04-15T13:43:50.900Z,64.10
2023-04-15T13:46:17.827Z,64.10
2023-04-15T13:48:44.747Z,64.10
2023-04-15T13:51:11.616Z,64.10
2023-04-15T13:53:39.803Z,64.10
2023-04-15T13:56:08.475Z,64.20
2023-04-15T13:58:36.345Z,64.10
2023-04-15T14:01:05.526Z,64.10
2023-04-15T14:03:33.229Z,64.10
2023-04-15T14:06:00.212Z,64.10
2023-04-15T14:08:27.056Z,64.20
2023-04-15T14:10:53.910Z,64.20
2023-04-15T14:13:22.143Z,64.20
2023-04-15T14:15:49.000Z,64.10
2023-04-15T14:18:15.869Z,64.20
2023-04-15T14:20:42.731Z,64.20
2023-04-15T14:23:09.606Z,64.20
2023-04-15T14:25:36.451Z,64.20
2023-04-15T14:28:03.571Z,64.10
2023-04-15T14:30:31.875Z,64.10
2023-04-15T14:32:58.811Z,64.10
2023-04-15T14:35:25.828Z,64.20
2023-04-15T14:37:53.210Z,64.10
2023-04-15T14:40:20.321Z,64.20
2023-04-15T14:42:47.315Z,64.10
2023-04-15T14:45:14.284Z,64.10
2023-04-15T14:47:42.583Z,64.10
2023-04-15T14:50:10.369Z,64.00
2023-04-15T14:52:37.198Z,64.00
2023-04-15T14:55:04.804Z,64.00
2023-04-15T14:57:31.723Z,63.90
2023-04-15T14:59:58.612Z,63.80
2023-04-15T15:02:38.473Z,63.80
2023-04-15T15:05:09.468Z,63.80
2023-04-15T15:07:36.444Z,63.70
2023-04-15T15:10:03.574Z,63.70
2023-04-15T15:12:30.436Z,63.60
2023-04-15T15:14:57.286Z,63.60
2023-04-15T15:17:24.180Z,63.60
2023-04-15T15:19:51.134Z,63.60
2023-04-15T15:22:21.285Z,63.50
2023-04-15T15:24:48.434Z,63.40
2023-04-15T15:27:15.314Z,63.40
2023-04-15T15:29:42.160Z,63.50
2023-04-15T15:32:09.005Z,63.30
2023-04-15T15:34:35.842Z,63.40
2023-04-15T15:37:02.726Z,63.40
2023-04-15T15:39:30.978Z,63.30
2023-04-15T15:41:57.853Z,63.40
2023-04-15T15:44:24.794Z,63.40
2023-04-15T15:46:51.777Z,63.40
2023-04-15T15:49:18.673Z,63.40
2023-04-15T15:51:45.541Z,63.40
2023-04-15T15:54:12.418Z,63.30
2023-04-15T15:56:40.662Z,63.40
2023-04-15T15:59:07.518Z,64.10
2023-04-15T16:01:34.387Z,63.30
2023-04-15T16:04:01.428Z,63.30
2023-04-15T16:06:28.417Z,63.30
2023-04-15T16:08:55.279Z,63.20
2023-04-15T16:11:22.153Z,63.30
2023-04-15T16:13:50.856Z,63.30
2023-04-15T16:16:17.900Z,63.30
2023-04-15T16:18:44.770Z,63.40
2023-04-15T16:21:11.649Z,63.40
2023-04-15T16:23:38.646Z,63.30
2023-04-15T16:26:05.710Z,63.40
2023-04-15T16:28:32.575Z,63.40
2023-04-15T16:31:00.798Z,63.40
2023-04-15T16:33:27.675Z,63.50
2023-04-15T16:35:54.524Z,63.80
2023-04-15T16:38:21.430Z,63.50
2023-04-15T16:40:48.298Z,63.50
2023-04-15T16:43:15.155Z,63.50
2023-04-15T16:45:42.025Z,63.50
2023-04-15T16:48:10.334Z,63.50
2023-04-15T16:50:37.241Z,63.50
2023-04-15T16:53:04.159Z,63.50
2023-04-15T16:55:31.004Z,63.50
2023-04-15T16:58:01.573Z,62.70
2023-04-15T17:00:30.498Z,62.40
2023-04-15T17:02:57.547Z,62.40
2023-04-15T17:05:26.119Z,62.20
2023-04-15T17:07:52.960Z,62.30
2023-04-15T17:10:19.833Z,62.20
2023-04-15T17:12:46.708Z,62.20
2023-04-15T17:15:13.614Z,62.40
2023-04-15T17:17:40.503Z,62.50
2023-04-15T17:20:07.699Z,62.50
2023-04-15T17:22:36.805Z,62.50
2023-04-15T17:25:04.105Z,62.50
2023-04-15T17:27:31.027Z,62.50
2023-04-15T17:29:57.925Z,62.60
2023-04-15T17:32:25.329Z,62.70
2023-04-15T17:34:52.209Z,62.80
2023-04-15T17:37:19.051Z,62.60
2023-04-15T17:39:47.368Z,62.70
2023-04-15T17:42:14.249Z,62.80
2023-04-15T17:44:41.270Z,62.90
2023-04-15T17:47:08.172Z,63.00
2023-04-15T17:49:35.085Z,63.10
2023-04-15T17:52:02.423Z,62.90
2023-04-15T17:54:29.286Z,62.80
2023-04-15T17:56:57.529Z,62.90
2023-04-15T17:59:24.379Z,63.10
2023-04-15T18:01:51.301Z,63.00
2023-04-15T18:04:18.233Z,62.90
2023-04-15T18:06:45.154Z,62.70
2023-04-15T18:09:12.030Z,62.70
2023-04-15T18:11:38.934Z,62.80
2023-04-15T18:14:07.403Z,62.70
2023-04-15T18:16:34.463Z,62.70
2023-04-15T18:19:01.355Z,62.70
2023-04-15T18:21:28.260Z,62.70
2023-04-15T18:23:55.175Z,62.70
2023-04-15T18:26:22.083Z,62.60
2023-04-15T18:28:48.980Z,62.50
2023-04-15T18:31:17.287Z,62.50
2023-04-15T18:33:44.178Z,62.50
2023-04-15T18:36:11.046Z,62.50
2023-04-15T18:38:37.911Z,62.40
2023-04-15T18:41:04.872Z,62.10
2023-04-15T18:43:31.762Z,61.90
2023-04-15T18:45:58.831Z,62.00
2023-04-15T18:48:27.337Z,62.00
2023-04-15T18:50:54.272Z,61.80
2023-04-15T18:53:21.248Z,61.40
2023-04-15T18:55:48.123Z,61.10
2023-04-15T18:58:14.994Z,61.20
2023-04-15T19:00:42.289Z,62.00
2023-04-15T19:03:09.265Z,61.20
2023-04-15T19:05:37.545Z,61.20
2023-04-15T19:08:04.543Z,61.10
2023-04-15T19:10:31.421Z,61.20
2023-04-15T19:12:58.266Z,61.60
2023-04-15T19:15:25.145Z,62.00
2023-04-15T19:17:52.025Z,62.20
2023-04-15T19:20:18.993Z,62.30
2023-04-15T19:22:47.269Z,62.50
2023-04-15T19:25:14.162Z,62.50
2023-04-15T19:27:41.026Z,62.40
2023-04-15T19:30:08.677Z,62.80
2023-04-15T19:32:35.771Z,62.80
2023-04-15T19:35:02.740Z,63.20
2023-04-15T19:37:29.713Z,63.50
2023-04-15T19:39:57.989Z,63.40
2023-04-15T19:42:24.978Z,63.30
2023-04-15T19:44:51.876Z,63.70
2023-04-15T19:47:18.806Z,63.80
2023-04-15T19:49:45.764Z,63.90
2023-04-15T19:52:12.967Z,64.20
2023-04-15T19:54:39.935Z,65.30
2023-04-15T19:57:08.329Z,65.80
2023-04-15T19:59:35.248Z,65.60
2023-04-15T20:02:02.338Z,65.70
2023-04-15T20:04:29.440Z,65.90
2023-04-15T20:06:56.443Z,65.90
2023-04-15T20:09:23.326Z,66.40
2023-04-15T20:12:46.880Z,66.60
2023-04-15T20:14:38.589Z,66.60
2023-04-15T20:17:05.472Z,67.60
2023-04-15T20:19:32.390Z,68.40
2023-04-15T20:21:59.283Z,68.80
2023-04-15T20:24:26.234Z,69.00
2023-04-15T20:26:53.180Z,69.30
2023-04-15T20:29:20.147Z,69.30
2023-04-15T20:31:48.898Z,69.40
2023-04-15T20:34:15.860Z,69.50
2023-04-15T20:36:42.746Z,70.30
2023-04-15T20:39:09.606Z,70.00
2023-04-15T20:41:36.458Z,70.00
2023-04-15T20:44:03.476Z,70.80
2023-04-15T20:46:30.401Z,70.00
2023-04-15T20:48:58.667Z,70.00
2023-04-15T20:51:25.533Z,70.10
2023-04-15T20:53:52.394Z,70.30
2023-04-15T20:56:19.261Z,70.10
2023-04-15T20:58:46.137Z,70.10
2023-04-15T21:01:13.169Z,70.30
2023-04-15T21:03:40.158Z,70.20
2023-04-15T21:06:08.569Z,70.00
2023-04-15T21:08:35.441Z,69.80
2023-04-15T21:11:02.336Z,69.60
2023-04-15T21:13:29.278Z,69.50
2023-04-15T21:15:56.205Z,69.10
2023-04-15T21:18:23.174Z,69.20
2023-04-15T21:20:56.294Z,69.00
2023-04-15T21:23:25.357Z,68.90
2023-04-15T21:25:52.318Z,68.90
2023-04-15T21:28:19.181Z,68.60
2023-04-15T21:30:46.028Z,68.70
2023-04-15T21:33:13.024Z,68.60
2023-04-15T21:35:39.960Z,68.70
2023-04-15T21:38:06.868Z,68.60
2023-04-15T21:40:35.141Z,68.50
2023-04-15T21:43:02.028Z,68.40
2023-04-15T21:45:28.990Z,68.40
2023-04-15T21:48:00.694Z,68.30
2023-04-15T21:50:35.972Z,68.30
2023-04-15T21:53:02.960Z,68.40
2023-04-15T21:55:29.825Z,68.50
2023-04-15T21:57:58.087Z,68.90
2023-04-15T22:00:24.929Z,69.10
2023-04-15T22:02:52.099Z,69.20
2023-04-15T22:05:19.225Z,69.20
2023-04-15T22:07:46.107Z,69.00
2023-04-15T22:10:13.001Z,68.90
2023-04-15T22:12:40.526Z,68.70
2023-04-15T22:15:09.806Z,68.70
2023-04-15T22:17:36.762Z,68.70
2023-04-15T22:20:03.981Z,68.70
2023-04-15T22:22:43.980Z,68.70
2023-04-15T22:25:11.453Z,68.70
2023-04-15T22:27:38.287Z,68.60
2023-04-15T22:30:06.273Z,68.50
2023-04-15T22:32:34.555Z,68.40
2023-04-15T22:35:01.538Z,68.40
2023-04-15T22:37:28.405Z,68.40
2023-04-15T22:39:55.270Z,68.50
2023-04-15T22:42:22.140Z,69.30
2023-04-15T22:44:49.458Z,68.50
2023-04-15T22:47:16.414Z,68.50
2023-04-15T22:49:44.625Z,68.60
2023-04-15T22:52:17.126Z,68.70
2023-04-15T22:54:44.210Z,68.70
2023-04-15T22:57:11.081Z,68.70
2023-04-15T22:59:37.973Z,68.70
2023-04-15T23:02:04.909Z,68.80
2023-04-15T23:04:32.124Z,68.70
2023-04-15T23:07:00.529Z,68.70
2023-04-15T23:09:27.392Z,68.70
2023-04-15T23:11:54.224Z,68.70
2023-04-15T23:14:21.090Z,68.70
2023-04-15T23:16:47.961Z,68.80
2023-04-15T23:19:14.804Z,68.70
2023-04-15T23:21:41.641Z,68.70
2023-04-15T23:24:09.866Z,68.80
2023-04-15T23:26:36.700Z,68.80
2023-04-15T23:29:03.572Z,68.90
2023-04-15T23:31:30.490Z,68.80
2023-04-15T23:33:57.337Z,68.90
2023-04-15T23:36:24.197Z,68.90
2023-04-15T23:38:51.099Z,68.90
2023-04-15T23:41:19.310Z,69.00
2023-04-15T23:43:46.142Z,69.00
2023-04-15T23:46:13.029Z,69.10
2023-04-15T23:48:39.961Z,69.00
2023-04-15T23:51:06.798Z,69.90
2023-04-15T23:53:33.636Z,69.00
2023-04-15T23:56:00.492Z,69.00
2023-04-15T23:58:29.120Z,69.00
